Time;durP1;ratioP1;P1;durP2;ratioP2;P2;SDS_P1;SDS_P2;PMS_P1;PMS_P2;Temp;Humidity;BMP_temperature;BMP_pressure;BME280_temperature;BME280_humidity;BME280_pressure;Samples;Min_cycle;Max_cycle;Signal;HPM_P1;HPM_P2
2022/08/16 00:00:26;;;;;;;12.18;10.70;;;;;;;;;;5005527;28;92993;-71
2022/08/16 00:02:54;;;;;;;17.85;11.57;;;;;;;;;;5015167;28;93588;-71
2022/08/16 00:05:21;;;;;;;16.17;11.68;;;;;;;;;;5015668;28;93536;-71
2022/08/16 00:07:48;;;;;;;12.75;11.48;;;;;;;;;;5015400;28;92736;-70
2022/08/16 00:10:22;;;;;;;13.43;12.13;;;;;;;;;;5008820;28;93278;-70
2022/08/16 00:12:50;;;;;;;12.77;11.48;;;;;;;;;;4995334;28;93972;-70
2022/08/16 00:15:20;;;;;;;14.98;11.93;;;;;;;;;;4999584;28;96696;-70
2022/08/16 00:17:46;;;;;;;14.32;12.82;;;;;;;;;;4995152;28;92302;-70
2022/08/16 00:20:22;;;;;;;17.58;12.25;;;;;;;;;;4994855;28;94288;-70
2022/08/16 00:22:50;;;;;;;13.10;11.80;;;;;;;;;;5000606;28;94045;-70
2022/08/16 00:25:18;;;;;;;15.43;12.13;;;;;;;;;;5015154;28;92418;-70
2022/08/16 00:28:05;;;;;;;18.67;12.45;;;;;;;;;;4999014;28;93184;-70
2022/08/16 00:30:31;;;;;;;14.25;12.80;;;;;;;;;;4996422;28;93299;-70
2022/08/16 00:32:59;;;;;;;14.13;11.95;;;;;;;;;;5004226;28;91743;-70
2022/08/16 00:35:27;;;;;;;15.98;11.75;;;;;;;;;;4977541;28;93301;-70
2022/08/16 00:37:57;;;;;;;14.10;11.93;;;;;;;;;;4975055;28;93231;-70
2022/08/16 00:40:31;;;;;;;12.32;11.30;;;;;;;;;;5005433;28;95769;-70
2022/08/16 00:43:04;;;;;;;16.35;12.52;;;;;;;;;;4972448;28;95070;-70
2022/08/16 00:45:37;;;;;;;13.25;11.95;;;;;;;;;;5013457;28;92683;-70
2022/08/16 00:48:23;;;;;;;12.55;11.15;;;;;;;;;;5010021;28;93564;-71
2022/08/16 00:50:56;;;;;;;15.68;11.98;;;;;;;;;;5014937;28;93201;-70
2022/08/16 00:53:25;;;;;;;20.67;11.48;;;;;;;;;;5013447;28;93193;-70
2022/08/16 00:55:52;;;;;;;12.98;11.25;;;;;;;;;;5015825;28;93297;-70
2022/08/16 00:58:21;;;;;;;18.55;12.43;;;;;;;;;;5014113;28;91763;-71
2022/08/16 01:01:00;;;;;;;13.60;11.55;;;;;;;;;;5008172;28;92390;-71
2022/08/16 01:03:27;;;;;;;14.15;12.35;;;;;;;;;;5001731;28;92984;-71
2022/08/16 01:05:56;;;;;;;16.05;12.15;;;;;;;;;;5012948;28;94826;-70
2022/08/16 01:08:24;;;;;;;13.77;11.75;;;;;;;;;;5014672;28;95735;-70
2022/08/16 01:11:02;;;;;;;15.77;11.75;;;;;;;;;;5012748;28;94314;-70
2022/08/16 01:13:30;;;;;;;12.85;11.55;;;;;;;;;;5014929;28;92302;-70
2022/08/16 01:16:05;;;;;;;13.32;12.02;;;;;;;;;;5017367;28;93085;-70
2022/08/16 01:18:39;;;;;;;12.85;11.55;;;;;;;;;;5003218;28;92474;-72
2022/08/16 01:21:07;;;;;;;;;;;;;;;;;;5010210;28;93123;-70
2022/08/16 01:23:40;;;;;;;12.75;11.63;;;;;;;;;;5014688;28;94261;-70
2022/08/16 01:26:29;;;;;;;12.20;11.10;;;;;;;;;;5013796;28;92339;-70
2022/08/16 01:29:03;;;;;;;13.23;11.93;;;;;;;;;;5013586;28;94586;-71
2022/08/16 01:31:29;;;;;;;12.82;11.68;;;;;;;;;;5010567;28;95555;-71
2022/08/16 01:33:56;;;;;;;13.13;11.68;;;;;;;;;;5012934;28;92534;-71
2022/08/16 01:36:23;;;;;;;14.00;11.98;;;;;;;;;;5004801;28;92931;-71
2022/08/16 01:38:52;;;;;;;15.45;11.63;;;;;;;;;;5014817;28;93138;-73
2022/08/16 01:41:26;;;;;;;17.30;11.27;;;;;;;;;;5011391;28;93016;-73
2022/08/16 01:43:56;;;;;;;12.63;11.25;;;;;;;;;;5012655;28;94210;-72
2022/08/16 01:46:33;;;;;;;14.07;11.45;;;;;;;;;;5011976;28;92387;-70
2022/08/16 01:49:21;;;;;;;12.80;11.60;;;;;;;;;;4992834;28;91715;-70
2022/08/16 01:51:52;;;;;;;17.42;12.13;;;;;;;;;;5002227;28;93331;-70
2022/08/16 01:54:25;;;;;;;17.83;12.85;;;;;;;;;;5012796;28;92478;-72
2022/08/16 01:56:57;;;;;;;13.35;12.05;;;;;;;;;;5011062;28;94842;-71
2022/08/16 01:59:25;;;;;;;14.77;12.30;;;;;;;;;;5012081;28;95228;-71
2022/08/16 02:01:53;;;;;;;14.25;12.73;;;;;;;;;;5016717;28;92347;-71
2022/08/16 02:04:27;;;;;;;15.57;12.65;;;;;;;;;;5012820;28;95253;-71
2022/08/16 02:07:14;;;;;;;13.95;12.35;;;;;;;;;;4995753;28;92421;-71
2022/08/16 02:09:42;;;;;;;17.17;13.90;;;;;;;;;;4987406;28;92777;-71
2022/08/16 02:12:22;;;;;;;14.65;13.10;;;;;;;;;;4992139;28;95928;-71
2022/08/16 02:15:11;;;;;;;20.90;13.15;;;;;;;;;;4992917;28;91761;-71
2022/08/16 02:17:37;;;;;;;14.48;13.02;;;;;;;;;;4993821;28;92489;-71
2022/08/16 02:20:06;;;;;;;18.15;13.23;;;;;;;;;;4992695;28;94148;-71
2022/08/16 02:22:37;;;;;;;14.70;13.10;;;;;;;;;;4990908;28;94819;-71
2022/08/16 02:25:06;;;;;;;15.13;13.57;;;;;;;;;;5011430;28;95190;-71
2022/08/16 02:27:35;;;;;;;14.70;13.30;;;;;;;;;;4993163;28;92489;-71
2022/08/16 02:30:04;;;;;;;17.17;14.70;;;;;;;;;;4993698;28;93760;-71
2022/08/16 02:32:33;;;;;;;19.15;14.75;;;;;;;;;;4992168;28;92381;-71
2022/08/16 02:35:21;;;;;;;21.50;14.57;;;;;;;;;;4989847;28;94024;-71
2022/08/16 02:37:49;;;;;;;17.27;15.32;;;;;;;;;;5008125;28;93205;-71
2022/08/16 02:40:20;;;;;;;20.48;15.18;;;;;;;;;;4999544;28;94289;-71
2022/08/16 02:42:47;;;;;;;15.55;13.98;;;;;;;;;;4997117;28;92489;-71
2022/08/16 02:45:17;;;;;;;17.50;15.65;;;;;;;;;;5012018;28;95120;-71
2022/08/16 02:47:44;;;;;;;19.92;15.88;;;;;;;;;;5005332;28;97520;-73
2022/08/16 02:50:27;;;;;;;17.73;14.85;;;;;;;;;;4992077;28;98204;-71
2022/08/16 02:53:13;;;;;;;16.90;15.13;;;;;;;;;;4993628;28;93097;-71
2022/08/16 02:55:44;;;;;;;17.45;15.75;;;;;;;;;;4995699;28;92577;-71
2022/08/16 02:58:16;;;;;;;17.85;15.98;;;;;;;;;;5012149;28;94957;-71
2022/08/16 03:00:42;;;;;;;18.67;15.95;;;;;;;;;;5000816;28;92414;-71
2022/08/16 03:03:15;;;;;;;17.80;16.05;;;;;;;;;;4994807;28;92742;-71
2022/08/16 03:05:43;;;;;;;21.10;16.63;;;;;;;;;;4995731;28;94578;-71
2022/08/16 03:08:15;;;;;;;19.30;16.67;;;;;;;;;;4995437;28;93111;-71
2022/08/16 03:11:02;;;;;;;19.50;17.67;;;;;;;;;;5002703;28;92450;-71
2022/08/16 03:13:29;;;;;;;17.63;15.90;;;;;;;;;;4994922;28;95637;-71
2022/08/16 03:16:06;;;;;;;20.17;18.02;;;;;;;;;;4994768;28;92931;-71
2022/08/16 03:18:53;;;;;;;18.42;16.52;;;;;;;;;;5014398;28;95397;-71
2022/08/16 03:21:20;;;;;;;18.17;16.45;;;;;;;;;;5016591;28;92936;-71
2022/08/16 03:23:49;;;;;;;18.33;15.60;;;;;;;;;;5013955;28;92475;-71
2022/08/16 03:26:17;;;;;;;17.73;15.93;;;;;;;;;;5015023;28;93868;-71
2022/08/16 03:28:44;;;;;;;17.98;16.38;;;;;;;;;;5001133;28;94234;-71
2022/08/16 03:31:12;;;;;;;19.85;16.98;;;;;;;;;;4997811;28;92285;-71
2022/08/16 03:33:40;;;;;;;19.67;17.25;;;;;;;;;;4997760;28;95214;-71
2022/08/16 03:36:08;;;;;;;24.15;17.75;;;;;;;;;;5015911;28;92502;-72
2022/08/16 03:38:58;;;;;;;19.10;16.88;;;;;;;;;;5012335;28;95327;-72
2022/08/16 03:41:25;;;;;;;18.10;16.33;;;;;;;;;;5014831;28;92921;-72
2022/08/16 03:44:12;;;;;;;20.58;17.15;;;;;;;;;;5012791;28;92450;-71
2022/08/16 03:46:59;;;;;;;17.58;15.98;;;;;;;;;;5015020;28;93086;-72
2022/08/16 03:49:31;;;;;;;17.92;16.15;;;;;;;;;;4994788;28;95357;-72
2022/08/16 03:52:03;;;;;;;17.25;15.75;;;;;;;;;;4994452;28;92987;-72
2022/08/16 03:54:32;;;;;;;17.75;15.90;;;;;;;;;;4997780;28;95541;-72
2022/08/16 03:57:01;;;;;;;17.02;14.93;;;;;;;;;;4995347;28;92402;-72
2022/08/16 03:59:31;;;;;;;16.95;15.13;;;;;;;;;;4996728;28;94782;-72
2022/08/16 04:02:03;;;;;;;18.75;15.57;;;;;;;;;;5015490;28;92403;-71
2022/08/16 04:04:48;;;;;;;18.95;16.40;;;;;;;;;;5012193;28;95834;-71
2022/08/16 04:07:15;;;;;;;18.67;16.73;;;;;;;;;;5012924;28;97721;-71
2022/08/16 04:09:44;;;;;;;17.52;15.68;;;;;;;;;;5027463;28;93308;-72
2022/08/16 04:12:11;;;;;;;17.50;15.55;;;;;;;;;;4994807;28;92420;-71
2022/08/16 04:15:00;;;;;;;19.50;17.45;;;;;;;;;;4995042;28;93956;-72
2022/08/16 04:17:28;;;;;;;17.70;15.90;;;;;;;;;;5014868;28;95196;-71
2022/08/16 04:19:56;;;;;;;18.17;16.45;;;;;;;;;;5013090;28;95005;-72
2022/08/16 04:22:24;;;;;;;17.70;15.90;;;;;;;;;;5015988;28;93359;-71
2022/08/16 04:24:57;;;;;;;19.23;16.80;;;;;;;;;;5007424;28;92550;-71
2022/08/16 04:27:29;;;;;;;17.45;15.85;;;;;;;;;;5026939;28;95179;-71
2022/08/16 04:29:58;;;;;;;19.13;16.17;;;;;;;;;;4991781;28;95626;-71
2022/08/16 04:32:30;;;;;;;23.85;16.92;;;;;;;;;;5000835;28;92476;-71
2022/08/16 04:34:56;;;;;;;18.92;16.95;;;;;;;;;;4987750;28;94942;-71
2022/08/16 04:37:23;;;;;;;23.25;17.38;;;;;;;;;;4975381;28;93965;-71
2022/08/16 04:40:00;;;;;;;20.20;17.58;;;;;;;;;;5010278;28;92857;-71
2022/08/16 04:42:31;;;;;;;25.05;17.48;;;;;;;;;;4995704;28;96120;-71
2022/08/16 04:45:03;;;;;;;19.98;17.90;;;;;;;;;;5015174;28;92816;-71
2022/08/16 04:47:33;;;;;;;19.58;17.63;;;;;;;;;;5000207;28;94079;-71
2022/08/16 04:50:08;;;;;;;23.42;18.45;;;;;;;;;;5013902;28;93217;-71
2022/08/16 04:52:35;;;;;;;23.30;19.25;;;;;;;;;;5013489;28;92507;-71
2022/08/16 04:55:04;;;;;;;18.88;16.85;;;;;;;;;;5011112;28;94750;-71
2022/08/16 04:57:32;;;;;;;21.73;17.58;;;;;;;;;;5013507;28;95566;-71
2022/08/16 04:59:58;;;;;;;18.45;16.63;;;;;;;;;;4998166;28;92519;-71
2022/08/16 05:02:47;;;;;;;21.83;17.65;;;;;;;;;;4991857;28;93226;-72
2022/08/16 05:05:22;;;;;;;20.38;17.38;;;;;;;;;;5042273;27;92515;-70
2022/08/16 05:07:48;;;;;;;13.77;12.25;;;;;;;;;;5013270;28;94082;-69
2022/08/16 05:10:26;;;;;;;13.82;12.35;;;;;;;;;;5012053;28;95134;-69
2022/08/16 05:12:53;;;;;;;15.57;13.93;;;;;;;;;;4990082;28;92621;-69
2022/08/16 05:15:19;;;;;;;15.13;12.73;;;;;;;;;;4974727;28;92533;-69
2022/08/16 05:17:48;;;;;;;15.05;13.55;;;;;;;;;;4998692;28;92549;-69
2022/08/16 05:20:28;;;;;;;15.77;13.52;;;;;;;;;;4994397;28;94998;-69
2022/08/16 05:23:10;;;;;;;15.07;12.38;;;;;;;;;;5017108;28;97821;-69
2022/08/16 05:25:39;;;;;;;19.08;15.25;;;;;;;;;;4978695;28;92561;-69
2022/08/16 05:28:15;;;;;;;16.13;13.40;;;;;;;;;;4979297;28;95397;-69
2022/08/16 05:30:46;;;;;;;14.27;12.45;;;;;;;;;;4987283;28;93199;-69
2022/08/16 05:33:20;;;;;;;16.63;14.57;;;;;;;;;;4973271;28;92486;-69
2022/08/16 05:35:48;;;;;;;16.58;14.68;;;;;;;;;;4985487;28;92602;-69
2022/08/16 05:38:35;;;;;;;15.93;12.82;;;;;;;;;;5006135;28;92887;-69
2022/08/16 05:41:09;;;;;;;17.25;13.30;;;;;;;;;;4973361;28;92751;-69
2022/08/16 05:43:41;;;;;;;18.52;13.88;;;;;;;;;;5004952;28;95026;-69
2022/08/16 05:46:16;;;;;;;17.83;16.05;;;;;;;;;;4978194;28;95636;-69
2022/08/16 05:48:58;;;;;;;14.15;12.70;;;;;;;;;;4988373;28;97781;-69
2022/08/16 05:51:36;;;;;;;15.05;13.50;;;;;;;;;;4977811;28;92943;-69
2022/08/16 05:54:06;;;;;;;22.13;14.95;;;;;;;;;;5017480;28;92623;-69
2022/08/16 05:56:35;;;;;;;16.52;14.85;;;;;;;;;;4976905;28;93009;-69
2022/08/16 05:59:03;;;;;;;18.60;16.52;;;;;;;;;;4992022;28;93529;-68
2022/08/16 06:01:32;;;;;;;20.05;18.23;;;;;;;;;;4992687;28;92438;-69
2022/08/16 06:04:05;;;;;;;18.20;16.33;;;;;;;;;;4993123;28;92958;-69
2022/08/16 06:06:51;;;;;;;21.52;16.88;;;;;;;;;;4979980;28;92389;-69
2022/08/16 06:09:24;;;;;;;18.25;16.02;;;;;;;;;;4986517;28;92520;-69
2022/08/16 06:11:50;;;;;;;18.95;16.88;;;;;;;;;;4982100;28;96532;-69
2022/08/16 06:14:17;;;;;;;27.17;18.83;;;;;;;;;;4978764;28;93108;-69
2022/08/16 06:16:43;;;;;;;19.27;17.23;;;;;;;;;;4982905;28;95866;-69
2022/08/16 06:19:16;;;;;;;20.58;17.75;;;;;;;;;;4987919;28;93182;-69
2022/08/16 06:21:55;;;;;;;21.08;17.10;;;;;;;;;;4986901;28;92482;-69
2022/08/16 06:24:22;;;;;;;21.48;18.98;;;;;;;;;;4982087;28;92794;-69
2022/08/16 06:27:08;;;;;;;18.80;15.63;;;;;;;;;;4973334;28;93038;-69
2022/08/16 06:29:36;;;;;;;20.10;18.10;;;;;;;;;;4991145;28;91865;-69
2022/08/16 06:32:03;;;;;;;18.48;16.45;;;;;;;;;;4975863;28;92321;-69
2022/08/16 06:34:30;;;;;;;18.80;16.75;;;;;;;;;;4973283;28;92429;-69
2022/08/16 06:37:16;;;;;;;23.40;16.33;;;;;;;;;;4983890;28;94798;-69
2022/08/16 06:39:44;;;;;;;21.95;17.85;;;;;;;;;;4989414;28;95783;-69
2022/08/16 06:42:25;;;;;;;22.90;19.95;;;;;;;;;;4976306;28;93008;-69
2022/08/16 06:45:11;;;;;;;28.02;18.48;;;;;;;;;;4976976;28;92505;-69
2022/08/16 06:47:40;;;;;;;23.35;19.40;;;;;;;;;;4974935;28;95102;-70
2022/08/16 06:50:24;;;;;;;24.40;20.38;;;;;;;;;;4991568;28;94254;-69
2022/08/16 06:52:56;;;;;;;22.85;19.15;;;;;;;;;;5015228;28;92502;-69
2022/08/16 06:55:39;;;;;;;19.33;17.25;;;;;;;;;;4992994;28;92634;-69
2022/08/16 06:58:10;;;;;;;21.00;18.90;;;;;;;;;;4992407;28;94322;-69
2022/08/16 07:00:50;;;;;;;22.27;19.15;;;;;;;;;;5015234;27;94313;-69
2022/08/16 07:03:19;;;;;;;24.30;17.73;;;;;;;;;;4987690;28;94958;-69
2022/08/16 07:05:58;;;;;;;28.05;17.25;;;;;;;;;;4984573;28;97557;-69
2022/08/16 07:08:31;;;;;;;25.60;17.80;;;;;;;;;;5007889;28;95186;-69
2022/08/16 07:10:57;;;;;;;24.95;16.85;;;;;;;;;;4979783;28;92453;-69
2022/08/16 07:13:29;;;;;;;27.27;17.88;;;;;;;;;;4976892;28;94805;-69
2022/08/16 07:16:16;;;;;;;18.52;16.63;;;;;;;;;;4990343;28;94183;-70
2022/08/16 07:18:46;;;;;;;20.33;16.27;;;;;;;;;;5014482;28;92376;-70
2022/08/16 07:21:31;;;;;;;16.65;14.77;;;;;;;;;;5009842;28;92323;-69
2022/08/16 07:24:19;;;;;;;22.13;15.25;;;;;;;;;;5007482;28;93011;-69
2022/08/16 07:27:00;;;;;;;20.00;14.95;;;;;;;;;;4974778;28;94924;-69
2022/08/16 07:29:27;;;;;;;15.93;14.25;;;;;;;;;;5006186;27;97855;-69
2022/08/16 07:31:58;;;;;;;13.20;11.70;;;;;;;;;;4991545;28;92495;-69
2022/08/16 07:34:26;;;;;;;17.02;13.45;;;;;;;;;;4991862;28;92970;-69
2022/08/16 07:37:05;;;;;;;18.33;14.05;;;;;;;;;;4992666;28;94349;-69
2022/08/16 07:39:49;;;;;;;14.80;13.30;;;;;;;;;;5010645;28;92485;-69
2022/08/16 07:42:17;;;;;;;16.05;12.52;;;;;;;;;;4991939;28;93287;-69
2022/08/16 07:44:54;;;;;;;16.75;13.07;;;;;;;;;;4974300;28;92798;-69
2022/08/16 07:47:23;;;;;;;17.80;12.80;;;;;;;;;;4984543;28;93009;-69
2022/08/16 07:49:58;;;;;;;19.98;13.00;;;;;;;;;;4975264;28;93374;-69
2022/08/16 07:52:25;;;;;;;13.80;11.18;;;;;;;;;;5014374;28;93086;-69
2022/08/16 07:54:56;;;;;;;20.23;11.88;;;;;;;;;;4993838;28;94940;-69
2022/08/16 07:57:23;;;;;;;13.80;11.55;;;;;;;;;;4990411;28;95747;-69
2022/08/16 07:59:52;;;;;;;17.83;11.50;;;;;;;;;;4981102;28;92524;-69
2022/08/16 08:02:22;;;;;;;21.45;12.27;;;;;;;;;;5010876;28;93853;-69
2022/08/16 08:04:54;;;;;;;;;;;;;;;;;;4981819;28;92686;-69
2022/08/16 08:07:21;;;;;;;17.83;12.98;;;;;;;;;;4992674;28;93582;-70
2022/08/16 08:09:53;;;;;;;;;;;;;;;;;;4990024;28;94251;-70
2022/08/16 08:12:19;;;;;;;13.88;11.48;;;;;;;;;;4995370;28;121754;-69
2022/08/16 08:15:04;;;;;;;13.32;10.98;;;;;;;;;;4989824;28;94512;-70
2022/08/16 08:17:38;;;;;;;18.23;11.75;;;;;;;;;;4989454;28;95334;-71
2022/08/16 08:20:14;;;;;;;23.95;11.98;;;;;;;;;;4992206;28;94887;-70
2022/08/16 08:22:52;;;;;;;14.30;11.45;;;;;;;;;;5021395;28;96626;-70
2022/08/16 08:25:28;;;;;;;23.70;13.15;;;;;;;;;;5016990;28;93440;-70
2022/08/16 08:28:15;;;;;;;20.75;12.90;;;;;;;;;;4991067;28;92447;-70
2022/08/16 08:30:42;;;;;;;23.10;13.80;;;;;;;;;;4985634;28;93373;-71
2022/08/16 08:33:17;;;;;;;23.85;13.88;;;;;;;;;;5002610;28;94027;-70
2022/08/16 08:35:46;;;;;;;21.02;13.10;;;;;;;;;;4993357;28;94074;-70
2022/08/16 08:38:14;;;;;;;25.30;12.52;;;;;;;;;;4994610;28;93358;-70
2022/08/16 08:41:03;;;;;;;15.73;13.57;;;;;;;;;;4990288;28;92608;-70
2022/08/16 08:43:29;;;;;;;15.50;11.35;;;;;;;;;;4990374;28;93388;-70
2022/08/16 08:46:07;;;;;;;17.85;12.40;;;;;;;;;;4997923;28;95877;-70
2022/08/16 08:48:45;;;;;;;17.15;12.13;;;;;;;;;;5003220;28;93340;-70
2022/08/16 08:51:33;;;;;;;20.13;13.98;;;;;;;;;;5007582;28;93181;-70
2022/08/16 08:54:04;;;;;;;17.95;11.80;;;;;;;;;;4993089;28;92464;-70
2022/08/16 08:56:33;;;;;;;15.70;12.52;;;;;;;;;;4989037;28;94891;-70
2022/08/16 08:59:24;;;;;;;13.52;12.15;;;;;;;;;;5008801;28;93296;-70
2022/08/16 09:01:53;;;;;;;15.75;11.80;;;;;;;;;;4995536;28;92650;-70
2022/08/16 09:04:24;;;;;;;22.15;13.70;;;;;;;;;;5007818;28;94167;-70
2022/08/16 09:06:52;;;;;;;20.95;11.30;;;;;;;;;;4981728;28;93196;-70
2022/08/16 09:09:23;;;;;;;15.05;12.27;;;;;;;;;;5006767;28;92477;-70
2022/08/16 09:11:54;;;;;;;30.95;13.48;;;;;;;;;;4992022;28;95402;-70
2022/08/16 09:14:39;;;;;;;24.73;12.85;;;;;;;;;;4988533;28;92380;-70
2022/08/16 09:17:20;;;;;;;28.88;11.52;;;;;;;;;;4985474;28;92933;-70
2022/08/16 09:20:09;;;;;;;23.42;12.85;;;;;;;;;;4998960;28;95569;-70
2022/08/16 09:22:38;;;;;;;23.70;12.65;;;;;;;;;;4979030;28;92380;-70
2022/08/16 09:25:07;;;;;;;20.55;11.77;;;;;;;;;;4992847;28;94000;-70
2022/08/16 09:27:39;;;;;;;23.25;11.95;;;;;;;;;;4986396;28;94999;-71
2022/08/16 09:30:25;;;;;;;12.02;10.55;;;;;;;;;;4981269;28;91857;-70
2022/08/16 09:33:10;;;;;;;19.65;11.55;;;;;;;;;;4995903;28;92426;-70
2022/08/16 09:35:36;;;;;;;15.27;11.52;;;;;;;;;;4997363;28;94688;-70
2022/08/16 09:38:05;;;;;;;18.80;11.38;;;;;;;;;;4972992;28;95002;-70
2022/08/16 09:40:34;;;;;;;13.98;12.35;;;;;;;;;;4987521;28;93387;-70
2022/08/16 09:43:13;;;;;;;12.43;9.48;;;;;;;;;;4981175;28;93128;-71
2022/08/16 09:46:00;;;;;;;16.13;10.48;;;;;;;;;;4974082;28;93100;-70
2022/08/16 09:48:28;;;;;;;14.25;10.07;;;;;;;;;;4973942;28;94237;-70
2022/08/16 09:51:14;;;;;;;19.35;10.32;;;;;;;;;;4974899;28;92915;-70
2022/08/16 09:53:40;;;;;;;21.60;10.75;;;;;;;;;;4981533;28;95671;-70
2022/08/16 09:56:24;;;;;;;18.85;10.55;;;;;;;;;;4983690;28;93969;-70
2022/08/16 09:58:52;;;;;;;27.35;10.82;;;;;;;;;;4983411;28;92616;-70
2022/08/16 10:01:35;;;;;;;19.65;10.77;;;;;;;;;;4977177;28;93432;-70
2022/08/16 10:04:01;;;;;;;21.77;10.75;;;;;;;;;;4982239;28;95285;-70
2022/08/16 10:06:31;;;;;;;16.73;9.18;;;;;;;;;;4977161;28;95625;-70
2022/08/16 10:09:00;;;;;;;19.80;8.73;;;;;;;;;;4975173;28;94715;-70
2022/08/16 10:14:17;;;;;;;10.52;7.75;;;;;;;;;;4976475;28;92937;-70
2022/08/16 10:16:50;;;;;;;11.00;8.30;;;;;;;;;;4973339;28;93476;-70
2022/08/16 10:19:25;;;;;;;11.20;8.13;;;;;;;;;;4990566;28;93746;-71
2022/08/16 10:21:52;;;;;;;14.02;9.35;;;;;;;;;;4977692;28;92743;-71
2022/08/16 10:24:22;;;;;;;15.15;7.38;;;;;;;;;;4981256;28;93766;-71
2022/08/16 10:26:56;;;;;;;14.52;10.57;;;;;;;;;;4977377;28;93077;-71
2022/08/16 10:29:45;;;;;;;15.70;10.10;;;;;;;;;;4975970;28;95712;-71
2022/08/16 10:32:27;;;;;;;11.90;9.27;;;;;;;;;;4973272;28;92895;-72
2022/08/16 10:34:57;;;;;;;10.70;9.00;;;;;;;;;;4974527;28;92863;-71
2022/08/16 10:37:24;;;;;;;12.43;8.55;;;;;;;;;;4974530;28;94261;-71
2022/08/16 10:40:03;;;;;;;14.85;8.30;;;;;;;;;;4981167;28;92405;-71
2022/08/16 10:42:30;;;;;;;14.10;7.45;;;;;;;;;;4991165;28;94097;-71
2022/08/16 10:44:56;;;;;;;7.13;6.47;;;;;;;;;;4994023;28;93091;-71
2022/08/16 10:47:22;;;;;;;9.63;6.32;;;;;;;;;;4993315;28;92989;-71
2022/08/16 10:49:49;;;;;;;8.25;7.22;;;;;;;;;;4977445;28;94833;-71
2022/08/16 10:52:16;;;;;;;8.55;6.95;;;;;;;;;;4974576;28;92450;-71
2022/08/16 10:54:44;;;;;;;11.77;7.10;;;;;;;;;;4974291;28;94861;-71
2022/08/16 10:57:31;;;;;;;13.27;8.60;;;;;;;;;;4974738;28;94859;-71
2022/08/16 10:59:58;;;;;;;11.13;7.70;;;;;;;;;;4976286;28;92427;-71
2022/08/16 11:02:26;;;;;;;11.38;7.25;;;;;;;;;;4974170;28;94009;-71
2022/08/16 11:05:15;;;;;;;10.20;7.95;;;;;;;;;;4977244;28;94203;-71
2022/08/16 11:07:43;;;;;;;11.18;7.70;;;;;;;;;;4972839;28;93124;-71
2022/08/16 11:10:19;;;;;;;12.43;8.10;;;;;;;;;;4980216;28;94002;-71
2022/08/16 11:13:06;;;;;;;17.83;9.65;;;;;;;;;;4981306;28;91624;-71
2022/08/16 11:15:54;;;;;;;18.40;11.02;;;;;;;;;;4992822;28;93400;-71
2022/08/16 11:18:23;;;;;;;14.55;11.10;;;;;;;;;;4987996;28;93429;-72
2022/08/16 11:21:09;;;;;;;11.52;9.55;;;;;;;;;;4971097;28;95289;-71
2022/08/16 11:23:55;;;;;;;19.70;9.02;;;;;;;;;;4975664;28;95415;-71
2022/08/16 11:26:24;;;;;;;16.85;9.57;;;;;;;;;;4986403;28;93211;-71
2022/08/16 11:28:52;;;;;;;20.73;10.57;;;;;;;;;;4983908;28;92749;-71
2022/08/16 11:31:38;;;;;;;18.58;10.43;;;;;;;;;;4982710;28;94885;-71
2022/08/16 11:34:11;;;;;;;18.90;9.32;;;;;;;;;;4990688;28;92483;-71
2022/08/16 11:36:38;;;;;;;13.88;9.75;;;;;;;;;;4994141;28;92808;-71
2022/08/16 11:39:18;;;;;;;12.65;9.55;;;;;;;;;;4997508;28;93235;-71
2022/08/16 11:41:45;;;;;;;17.10;9.63;;;;;;;;;;4986055;28;95347;-71
2022/08/16 11:44:15;;;;;;;14.68;10.93;;;;;;;;;;4983184;28;93919;-71
2022/08/16 11:46:45;;;;;;;19.00;11.77;;;;;;;;;;4973673;28;96581;-71
2022/08/16 11:49:12;;;;;;;14.95;11.07;;;;;;;;;;4975194;28;94243;-71
2022/08/16 11:51:42;;;;;;;20.45;11.57;;;;;;;;;;4978359;28;94149;-71
2022/08/16 11:54:09;;;;;;;18.92;11.98;;;;;;;;;;4976122;28;92518;-71
2022/08/16 11:56:46;;;;;;;16.77;13.57;;;;;;;;;;4975505;28;93307;-71
2022/08/16 11:59:22;;;;;;;14.65;12.48;;;;;;;;;;4976649;28;93846;-71
2022/08/16 12:01:50;;;;;;;16.30;10.95;;;;;;;;;;4975187;28;93368;-71
2022/08/16 12:04:21;;;;;;;21.33;11.50;;;;;;;;;;4975770;28;93127;-71
2022/08/16 12:06:49;;;;;;;14.88;12.43;;;;;;;;;;4975393;28;94152;-71
2022/08/16 12:09:19;;;;;;;13.27;9.90;;;;;;;;;;4975783;28;92566;-71
2022/08/16 12:11:45;;;;;;;18.45;11.20;;;;;;;;;;4979858;28;95376;-71
2022/08/16 12:14:18;;;;;;;12.93;10.70;;;;;;;;;;4976253;28;92662;-70
2022/08/16 12:16:48;;;;;;;9.37;8.40;;;;;;;;;;4981273;28;92984;-71
2022/08/16 12:19:22;;;;;;;12.02;8.68;;;;;;;;;;4978625;28;93100;-70
2022/08/16 12:22:00;;;;;;;17.15;9.63;;;;;;;;;;4992313;28;92718;-70
2022/08/16 12:24:31;;;;;;;15.77;9.70;;;;;;;;;;4989342;28;94037;-70
2022/08/16 12:26:57;;;;;;;14.13;7.80;;;;;;;;;;4989400;28;93310;-70
2022/08/16 12:29:25;;;;;;;9.98;8.10;;;;;;;;;;4981711;28;92275;-69
2022/08/16 12:31:54;;;;;;;15.63;8.73;;;;;;;;;;4981841;28;93086;-71
2022/08/16 12:34:41;;;;;;;13.43;9.32;;;;;;;;;;4978575;28;94090;-71
2022/08/16 12:37:18;;;;;;;16.83;10.32;;;;;;;;;;4974948;28;94824;-71
2022/08/16 12:39:44;;;;;;;12.13;9.57;;;;;;;;;;4974357;28;93249;-72
2022/08/16 12:42:18;;;;;;;22.20;13.20;;;;;;;;;;4988577;28;92440;-72
2022/08/16 12:44:46;;;;;;;13.18;11.88;;;;;;;;;;4994852;28;92870;-72
2022/08/16 12:49:57;;;;;;;17.80;10.55;;;;;;;;;;4974824;28;92470;-72
2022/08/16 12:52:26;;;;;;;12.98;10.10;;;;;;;;;;4975501;28;93143;-72
2022/08/16 12:55:00;;;;;;;15.80;10.60;;;;;;;;;;4975235;28;91628;-72
2022/08/16 12:57:27;;;;;;;15.32;11.57;;;;;;;;;;4978298;28;92461;-72
2022/08/16 13:00:06;;;;;;;15.82;13.38;;;;;;;;;;4974219;28;93045;-72
2022/08/16 13:02:33;;;;;;;18.00;13.23;;;;;;;;;;4975457;28;95013;-72
2022/08/16 13:05:02;;;;;;;15.43;12.45;;;;;;;;;;4980217;28;96420;-72
2022/08/16 13:07:30;;;;;;;12.63;11.43;;;;;;;;;;4974165;28;93031;-72
2022/08/16 13:10:12;;;;;;;19.95;14.40;;;;;;;;;;4975280;28;92315;-72
2022/08/16 13:12:58;;;;;;;18.40;13.82;;;;;;;;;;4976124;28;93329;-72
2022/08/16 13:15:27;;;;;;;17.15;12.52;;;;;;;;;;4994032;28;94155;-72
2022/08/16 13:17:53;;;;;;;20.02;13.18;;;;;;;;;;4981583;28;92489;-72
2022/08/16 13:20:21;;;;;;;16.63;13.23;;;;;;;;;;4985184;28;93119;-72
2022/08/16 13:22:50;;;;;;;19.95;15.77;;;;;;;;;;5006014;28;92459;-72
2022/08/16 13:25:19;;;;;;;22.10;14.85;;;;;;;;;;4974778;28;92892;-72
2022/08/16 13:27:47;;;;;;;17.55;15.10;;;;;;;;;;4972072;28;95497;-72
2022/08/16 13:30:31;;;;;;;18.10;13.05;;;;;;;;;;4974945;28;92381;-72
2022/08/16 13:33:08;;;;;;;20.50;13.30;;;;;;;;;;4974921;28;92985;-72
2022/08/16 13:35:39;;;;;;;20.30;14.73;;;;;;;;;;4980849;28;93487;-72
2022/08/16 13:38:10;;;;;;;24.02;14.77;;;;;;;;;;4989346;28;92475;-72
2022/08/16 13:40:52;;;;;;;22.17;15.95;;;;;;;;;;4974314;28;93934;-72
2022/08/16 13:43:22;;;;;;;21.77;12.50;;;;;;;;;;4996533;28;93138;-72
2022/08/16 13:45:48;;;;;;;17.92;9.27;;;;;;;;;;4991305;28;94161;-72
2022/08/16 13:48:15;;;;;;;13.35;8.80;;;;;;;;;;4994748;28;94306;-72
2022/08/16 13:50:51;;;;;;;17.88;8.40;;;;;;;;;;4992688;28;92861;-72
2022/08/16 13:53:17;;;;;;;16.10;7.53;;;;;;;;;;4976561;28;95140;-72
2022/08/16 13:55:50;;;;;;;14.77;6.97;;;;;;;;;;4974366;28;93353;-72
2022/08/16 13:58:25;;;;;;;11.18;7.40;;;;;;;;;;4975075;28;92512;-72
2022/08/16 14:01:04;;;;;;;11.70;7.18;;;;;;;;;;4975379;28;93841;-72
2022/08/16 14:03:35;;;;;;;11.75;7.03;;;;;;;;;;4974643;28;92463;-72
2022/08/16 14:06:02;;;;;;;9.65;6.38;;;;;;;;;;4978186;28;92414;-72
2022/08/16 14:08:28;;;;;;;12.73;7.70;;;;;;;;;;4982332;28;93469;-72
2022/08/16 14:10:55;;;;;;;15.38;6.30;;;;;;;;;;4974623;28;92955;-70
2022/08/16 14:13:22;;;;;;;12.57;7.10;;;;;;;;;;4974980;28;93828;-71
2022/08/16 14:15:49;;;;;;;11.13;8.55;;;;;;;;;;4974756;28;93465;-71
2022/08/16 14:18:15;;;;;;;13.70;8.02;;;;;;;;;;4972563;28;95353;-72
2022/08/16 14:20:45;;;;;;;11.77;7.05;;;;;;;;;;4974420;28;96152;-72
2022/08/16 14:23:17;;;;;;;12.20;8.82;;;;;;;;;;4981710;28;94186;-72
2022/08/16 14:25:49;;;;;;;16.42;7.47;;;;;;;;;;4976936;28;92361;-72
2022/08/16 14:28:20;;;;;;;10.10;9.13;;;;;;;;;;4974853;28;94026;-72
2022/08/16 14:30:49;;;;;;;13.48;8.43;;;;;;;;;;4986178;28;92451;-71
2022/08/16 14:33:16;;;;;;;16.45;8.63;;;;;;;;;;4993927;28;93899;-71
2022/08/16 14:35:43;;;;;;;16.45;8.70;;;;;;;;;;4994774;28;93367;-72
2022/08/16 14:38:16;;;;;;;12.27;8.77;;;;;;;;;;4993305;28;92550;-72
2022/08/16 14:40:44;;;;;;;14.82;9.15;;;;;;;;;;4991831;28;93905;-72
2022/08/16 14:43:18;;;;;;;14.13;9.82;;;;;;;;;;4992696;28;96550;-72
2022/08/16 14:45:45;;;;;;;23.90;9.52;;;;;;;;;;4985052;28;92507;-72
2022/08/16 14:48:16;;;;;;;15.18;11.88;;;;;;;;;;4997213;28;94213;-72
2022/08/16 14:50:50;;;;;;;19.77;13.13;;;;;;;;;;4993510;28;92395;-72
2022/08/16 14:53:17;;;;;;;15.82;12.43;;;;;;;;;;4992797;28;93944;-71
2022/08/16 14:55:44;;;;;;;22.58;14.02;;;;;;;;;;4987276;28;94200;-71
2022/08/16 14:58:10;;;;;;;22.20;15.07;;;;;;;;;;4976092;28;92464;-71